createdAt,value
2023-05-23T00:00:20.132Z,100433.06
2023-05-23T00:02:47.370Z,100434.84
2023-05-23T00:05:15.703Z,100435.72
2023-05-23T00:07:43.031Z,100435.72
2023-05-23T00:10:10.661Z,100434.75
2023-05-23T00:12:39.532Z,100446.13
2023-05-23T00:15:08.259Z,100440.84
2023-05-23T00:17:38.023Z,100422.44
2023-05-23T00:20:12.225Z,100441.66
2023-05-23T00:22:43.183Z,100422.38
2023-05-23T00:25:11.261Z,100437.25
2023-05-23T00:27:38.513Z,100430.34
2023-05-23T00:30:06.215Z,100432.03
2023-05-23T00:32:35.792Z,100423.25
2023-05-23T00:35:03.046Z,100438.06
2023-05-23T00:37:32.560Z,100432.81
2023-05-23T00:40:00.743Z,100440.66
2023-05-23T00:42:28.084Z,100426.69
2023-05-23T00:44:55.460Z,100416.19
2023-05-23T00:47:22.674Z,100432.78
2023-05-23T00:49:49.787Z,100425.81
2023-05-23T00:52:17.689Z,100419.63
2023-05-23T00:54:45.156Z,100438.88
2023-05-23T00:57:12.417Z,100431.03
2023-05-23T00:59:40.913Z,100431.84
2023-05-23T01:02:09.330Z,100434.41
2023-05-23T01:04:36.652Z,100410.78
2023-05-23T01:07:03.863Z,100425.69
2023-05-23T01:09:32.251Z,100433.53
2023-05-23T01:12:29.370Z,100423.91
2023-05-23T01:15:15.968Z,100429.16
2023-05-23T01:18:03.564Z,100423.91
2023-05-23T01:20:34.763Z,100410.09
2023-05-23T01:23:17.660Z,100418.59
2023-05-23T01:26:07.208Z,100410.72
2023-05-23T01:28:47.454Z,100423.78
2023-05-23T01:31:17.909Z,100424.66
2023-05-23T01:33:46.768Z,100416.00
2023-05-23T01:36:17.166Z,100417.69
2023-05-23T01:38:45.015Z,100434.22
2023-05-23T01:41:12.216Z,100411.50
2023-05-23T01:43:39.725Z,100414.19
2023-05-23T01:46:08.623Z,100418.50
2023-05-23T01:48:37.743Z,100406.34
2023-05-23T01:51:06.121Z,100411.59
2023-05-23T01:53:35.573Z,100422.84
2023-05-23T01:56:03.975Z,100412.47
2023-05-23T01:58:31.484Z,100413.34
2023-05-23T02:00:59.084Z,100425.50
2023-05-23T02:03:26.380Z,100418.47
2023-05-23T02:05:54.078Z,100392.28
2023-05-23T02:08:21.183Z,100406.28
2023-05-23T02:10:48.207Z,100410.66
2023-05-23T02:13:15.370Z,100417.75
2023-05-23T02:15:42.830Z,100405.56
2023-05-23T02:18:10.251Z,100390.75
2023-05-23T02:21:00.265Z,100394.25
2023-05-23T02:23:27.271Z,100395.13
2023-05-23T02:25:54.338Z,100407.38
2023-05-23T02:28:21.494Z,100397.72
2023-05-23T02:30:50.024Z,100403.00
2023-05-23T02:33:18.331Z,100403.03
2023-05-23T02:35:46.467Z,100306.84
2023-05-23T02:38:13.654Z,100401.44
2023-05-23T02:40:42.023Z,100397.94
2023-05-23T02:43:09.150Z,100412.81
2023-05-23T02:45:36.434Z,100401.53
2023-05-23T02:48:04.952Z,100398.91
2023-05-23T02:50:32.292Z,100411.97
2023-05-23T02:52:59.360Z,100403.22
2023-05-23T02:55:26.798Z,100406.75
2023-05-23T02:57:53.854Z,100401.53
2023-05-23T03:00:21.395Z,100401.59
2023-05-23T03:02:53.486Z,100362.25
2023-05-23T03:05:20.805Z,100406.88
2023-05-23T03:07:48.127Z,100407.75
2023-05-23T03:10:15.739Z,100418.25
2023-05-23T03:12:43.926Z,100409.53
2023-05-23T03:15:11.724Z,100412.19
2023-05-23T03:17:41.865Z,100405.22
2023-05-23T03:20:10.144Z,100385.19
2023-05-23T03:22:39.388Z,100365.09
2023-05-23T03:25:07.028Z,100405.34
2023-05-23T03:27:34.868Z,100391.41
2023-05-23T03:30:03.341Z,100405.44
2023-05-23T03:32:32.730Z,100406.34
2023-05-23T03:34:59.916Z,100395.91
2023-05-23T03:37:27.007Z,100405.53
2023-05-23T03:39:54.076Z,100361.88
2023-05-23T03:42:21.192Z,100406.50
2023-05-23T03:44:48.251Z,100396.06
2023-05-23T03:47:15.408Z,100397.81
2023-05-23T03:49:45.373Z,100403.09
2023-05-23T03:52:13.012Z,100391.75
2023-05-23T03:54:40.290Z,100390.03
2023-05-23T03:57:08.495Z,100403.13
2023-05-23T03:59:37.089Z,100397.00
2023-05-23T04:02:07.894Z,100390.03
2023-05-23T04:04:36.689Z,100397.03
2023-05-23T04:07:05.744Z,100392.69
2023-05-23T04:09:33.119Z,100380.44
2023-05-23T04:12:01.243Z,100389.19
2023-05-23T04:14:29.455Z,100395.31
2023-05-23T04:16:59.167Z,100390.97
2023-05-23T04:19:26.259Z,100385.72
2023-05-23T04:21:53.480Z,100388.34
2023-05-23T04:24:21.195Z,100384.84
2023-05-23T04:26:48.399Z,100390.06
2023-05-23T04:29:15.508Z,100383.97
2023-05-23T04:31:46.488Z,100377.00
2023-05-23T04:34:14.431Z,100377.00
2023-05-23T04:36:44.826Z,100386.59
2023-05-23T04:39:12.446Z,100382.25
2023-05-23T04:41:46.550Z,100396.22
2023-05-23T04:44:30.464Z,100388.34
2023-05-23T04:47:12.351Z,100390.13
2023-05-23T04:50:03.170Z,100392.72
2023-05-23T04:52:34.189Z,100392.72
2023-05-23T04:55:01.988Z,100406.72
2023-05-23T04:57:31.453Z,100407.59
2023-05-23T04:59:58.797Z,100417.19
2023-05-23T05:02:27.707Z,100399.72
2023-05-23T05:04:54.862Z,100416.31
2023-05-23T05:07:22.129Z,100412.81
2023-05-23T05:09:49.249Z,100408.47
2023-05-23T05:12:17.379Z,100415.41
2023-05-23T05:14:44.532Z,100420.66
2023-05-23T05:17:13.064Z,100428.53
2023-05-23T05:19:56.906Z,100384.84
2023-05-23T05:22:24.058Z,100372.63
2023-05-23T05:24:51.497Z,100382.25
2023-05-23T05:27:19.129Z,100433.78
2023-05-23T05:29:46.348Z,100420.69
2023-05-23T05:32:13.514Z,100424.16
2023-05-23T05:34:40.679Z,100425.00
2023-05-23T05:37:07.843Z,100405.75
2023-05-23T05:39:34.881Z,100410.13
2023-05-23T05:42:03.862Z,100406.66
2023-05-23T05:44:31.507Z,100409.22
2023-05-23T05:46:58.574Z,100395.28
2023-05-23T05:49:25.946Z,100403.13
2023-05-23T05:51:53.402Z,100405.72
2023-05-23T05:54:20.572Z,100370.78
2023-05-23T05:56:48.242Z,100407.41
2023-05-23T05:59:16.365Z,100398.69
2023-05-23T06:01:45.105Z,100394.28
2023-05-23T06:04:12.852Z,100393.41
2023-05-23T06:06:40.815Z,100397.75
2023-05-23T06:09:08.992Z,100391.59
2023-05-23T06:11:39.333Z,100402.13
2023-05-23T06:14:09.927Z,100384.63
2023-05-23T06:16:41.216Z,100395.97
2023-05-23T06:19:08.794Z,100388.97
2023-05-23T06:21:37.570Z,100364.50
2023-05-23T06:24:07.039Z,100372.28
2023-05-23T06:26:34.257Z,100375.72
2023-05-23T06:29:01.337Z,100376.56
2023-05-23T06:31:28.516Z,100373.88
2023-05-23T06:33:55.642Z,100364.25
2023-05-23T06:36:22.702Z,100368.59
2023-05-23T06:38:49.749Z,100362.44
2023-05-23T06:41:16.810Z,100351.06
2023-05-23T06:43:43.887Z,100371.09
2023-05-23T06:46:16.268Z,100358.81
2023-05-23T06:48:43.523Z,100357.00
2023-05-23T06:51:11.619Z,100355.16
2023-05-23T06:53:38.890Z,100357.72
2023-05-23T06:56:06.122Z,100351.56
2023-05-23T06:58:39.878Z,100350.56
2023-05-23T07:01:07.363Z,100348.72
2023-05-23T07:03:41.742Z,100340.75
2023-05-23T07:06:09.438Z,100330.22
2023-05-23T07:08:37.209Z,100332.72
2023-05-23T07:11:06.557Z,100325.38
2023-05-23T07:13:40.185Z,100319.19
2023-05-23T07:16:07.460Z,100329.66
2023-05-23T07:18:40.457Z,100307.78
2023-05-23T07:21:08.522Z,100310.38
2023-05-23T07:23:36.993Z,100332.13
2023-05-23T07:26:05.117Z,100331.13
2023-05-23T07:28:41.454Z,100337.25
2023-05-23T07:31:09.644Z,100343.34
2023-05-23T07:33:38.939Z,100331.13
2023-05-23T07:36:08.341Z,100333.84
2023-05-23T07:38:35.732Z,100331.03
2023-05-23T07:41:11.317Z,100332.03
2023-05-23T07:43:39.807Z,100339.81
2023-05-23T07:46:07.219Z,100340.66
2023-05-23T07:48:34.460Z,100333.69
2023-05-23T07:51:01.667Z,100289.28
2023-05-23T07:53:29.336Z,100339.00
2023-05-23T07:55:57.782Z,100334.59
2023-05-23T07:58:28.248Z,100361.44
2023-05-23T08:00:55.312Z,100350.09
2023-05-23T08:03:42.371Z,100354.31
2023-05-23T08:06:17.929Z,100312.53
2023-05-23T08:08:45.070Z,100355.09
2023-05-23T08:11:12.184Z,100353.31
2023-05-23T08:13:45.379Z,100359.38
2023-05-23T08:16:36.486Z,100353.06
2023-05-23T08:19:06.213Z,100340.72
2023-05-23T08:21:36.482Z,100358.97
2023-05-23T08:24:03.804Z,100356.22
2023-05-23T08:26:35.064Z,100298.75
2023-05-23T08:29:04.913Z,100349.28
2023-05-23T08:31:34.435Z,100358.97
2023-05-23T08:34:03.756Z,100352.91
2023-05-23T08:36:36.982Z,100355.69
2023-05-23T08:39:06.364Z,100328.63
2023-05-23T08:41:37.909Z,100338.28
2023-05-23T08:44:09.849Z,100349.34
2023-05-23T08:46:46.654Z,100338.81
2023-05-23T08:49:23.219Z,100350.25
2023-05-23T08:51:52.434Z,100346.81
2023-05-23T08:54:22.450Z,100351.34
2023-05-23T08:56:49.909Z,100343.56
2023-05-23T08:59:19.952Z,100340.28
2023-05-23T09:01:48.885Z,100298.53
2023-05-23T09:04:17.358Z,100341.34
2023-05-23T09:06:55.716Z,100348.25
2023-05-23T09:09:23.300Z,100344.38
2023-05-23T09:11:52.287Z,100347.94
2023-05-23T09:14:19.993Z,100367.28
2023-05-23T09:16:49.426Z,100357.69
2023-05-23T09:19:19.504Z,100363.91
2023-05-23T09:21:54.546Z,100367.56
2023-05-23T09:24:36.122Z,100371.97
2023-05-23T09:27:07.393Z,100379.06
2023-05-23T09:29:41.598Z,100381.75
2023-05-23T09:32:13.781Z,100388.81
2023-05-23T09:35:01.130Z,100382.75
2023-05-23T09:37:31.527Z,100382.00
2023-05-23T09:40:07.282Z,100388.19
2023-05-23T09:42:34.600Z,100384.75
2023-05-23T09:45:04.328Z,100374.28
2023-05-23T09:47:33.017Z,100374.28
2023-05-23T09:50:00.170Z,100388.25
2023-05-23T09:52:27.782Z,100380.44
2023-05-23T09:54:55.292Z,100374.31
2023-05-23T09:57:23.673Z,100374.31
2023-05-23T09:59:54.725Z,100387.41
2023-05-23T10:03:08.465Z,100387.31
2023-05-23T10:05:40.945Z,100376.91
2023-05-23T10:08:16.452Z,100386.47
2023-05-23T10:10:58.472Z,100332.38
2023-05-23T10:13:29.442Z,100383.00
2023-05-23T10:16:38.176Z,100384.69
2023-05-23T10:19:18.896Z,100368.09
2023-05-23T10:21:52.579Z,100360.22
2023-05-23T10:24:20.499Z,100362.91
2023-05-23T10:26:48.978Z,100385.63
2023-05-23T10:29:16.104Z,100374.28
2023-05-23T10:31:44.247Z,100373.38
2023-05-23T10:34:28.421Z,100393.53
2023-05-23T10:37:06.956Z,100374.38
2023-05-23T10:39:53.137Z,100388.38
2023-05-23T10:42:38.784Z,100382.25
2023-05-23T10:45:24.836Z,100386.59
2023-05-23T10:47:53.433Z,100396.34
2023-05-23T10:50:41.963Z,100386.75
2023-05-23T10:53:11.488Z,100383.28
2023-05-23T10:55:38.493Z,100369.41
2023-05-23T10:58:21.899Z,100390.31
2023-05-23T11:01:22.557Z,100394.75
2023-05-23T11:03:53.993Z,100395.63
2023-05-23T11:06:29.728Z,100386.88
2023-05-23T11:09:22.380Z,100386.88
2023-05-23T11:12:15.798Z,100386.94
2023-05-23T11:14:48.856Z,100386.97
2023-05-23T11:17:17.843Z,100386.16
2023-05-23T11:20:06.197Z,100386.13
2023-05-23T11:22:36.792Z,100383.59
2023-05-23T11:25:10.192Z,100394.94
2023-05-23T11:27:39.442Z,100372.28
2023-05-23T11:30:17.402Z,100391.47
2023-05-23T11:32:52.342Z,100329.44
2023-05-23T11:35:21.273Z,100373.13
2023-05-23T11:37:49.312Z,100388.81
2023-05-23T11:40:25.900Z,100389.63
2023-05-23T11:42:54.595Z,100394.88
2023-05-23T11:45:23.258Z,100391.38
2023-05-23T11:47:50.365Z,100386.13
2023-05-23T11:50:18.047Z,100387.81
2023-05-23T11:52:51.340Z,100375.59
2023-05-23T11:55:22.906Z,100376.38
2023-05-23T11:57:51.953Z,100377.25
2023-05-23T12:00:19.771Z,100383.34
2023-05-23T12:02:50.266Z,100359.72
2023-05-23T12:05:17.668Z,100364.91
2023-05-23T12:07:47.382Z,100367.50
2023-05-23T12:10:21.846Z,100364.00
2023-05-23T12:12:51.433Z,100367.44
2023-05-23T12:15:18.582Z,100378.75
2023-05-23T12:17:46.657Z,100363.81
2023-05-23T12:20:14.376Z,100362.03
2023-05-23T12:22:42.491Z,100351.50
2023-05-23T12:25:11.332Z,100336.59
2023-05-23T12:27:42.612Z,100333.88
2023-05-23T12:30:13.642Z,100321.63
2023-05-23T12:32:42.151Z,100329.41
2023-05-23T12:35:10.854Z,100340.69
2023-05-23T12:37:45.992Z,100339.78
2023-05-23T12:40:15.607Z,100333.59
2023-05-23T12:42:56.785Z,100327.38
2023-05-23T12:45:43.585Z,100320.31
2023-05-23T12:48:11.457Z,100290.63
2023-05-23T12:50:39.290Z,100304.53
2023-05-23T12:53:06.442Z,100316.63
2023-05-23T12:55:33.478Z,100320.13
2023-05-23T12:58:00.536Z,100319.28
2023-05-23T13:00:27.670Z,100313.06
2023-05-23T13:02:54.876Z,100311.31
2023-05-23T13:05:22.655Z,100314.69
2023-05-23T13:07:50.062Z,100308.44
2023-05-23T13:10:17.482Z,100304.94
2023-05-23T13:12:44.837Z,100261.34
2023-05-23T13:15:12.218Z,100310.06
2023-05-23T13:17:39.461Z,100312.69
2023-05-23T13:20:07.762Z,100303.03
2023-05-23T13:22:35.062Z,100264.69
2023-05-23T13:25:02.138Z,100306.50
2023-05-23T13:27:29.756Z,100302.13
2023-05-23T13:29:56.871Z,100292.56
2023-05-23T13:32:23.925Z,100295.09
2023-05-23T13:34:51.068Z,100295.97
2023-05-23T13:37:18.120Z,100302.94
2023-05-23T13:39:45.371Z,100295.09
2023-05-23T13:42:12.531Z,100288.16
2023-05-23T13:44:39.586Z,100270.84
2023-05-23T13:47:14.466Z,100296.84
2023-05-23T13:49:43.193Z,100297.75
2023-05-23T13:52:10.648Z,100281.09
2023-05-23T13:54:38.523Z,100298.53
2023-05-23T13:57:06.943Z,100291.44
2023-05-23T13:59:34.209Z,100289.72
2023-05-23T14:02:01.563Z,100296.59
2023-05-23T14:04:28.902Z,100293.94
2023-05-23T14:06:56.096Z,100286.00
2023-05-23T14:09:23.625Z,100285.03
2023-05-23T14:11:52.466Z,100294.66
2023-05-23T14:14:19.792Z,100287.72
2023-05-23T14:16:47.188Z,100284.16
2023-05-23T14:19:14.527Z,100277.16
2023-05-23T14:21:44.041Z,100285.03
2023-05-23T14:24:12.241Z,100283.31
2023-05-23T14:26:39.341Z,100280.78
2023-05-23T14:29:06.489Z,100268.53
2023-05-23T14:31:33.790Z,100261.56
2023-05-23T14:34:00.966Z,100283.38
2023-05-23T14:36:28.682Z,100276.34
2023-05-23T14:38:56.089Z,100252.84
2023-05-23T14:41:23.312Z,100258.03
2023-05-23T14:43:50.678Z,100266.09
2023-05-23T14:46:18.478Z,100266.16
2023-05-23T14:48:45.687Z,100273.16
2023-05-23T14:51:23.639Z,100217.38
2023-05-23T14:53:54.440Z,100261.81
2023-05-23T14:56:23.433Z,100259.84
2023-05-23T14:58:50.703Z,100255.38
2023-05-23T15:01:18.401Z,100251.81
2023-05-23T15:03:46.167Z,100254.50
2023-05-23T15:06:13.386Z,100244.81
2023-05-23T15:08:41.457Z,100233.47
2023-05-23T15:11:09.848Z,100234.31
2023-05-23T15:13:37.056Z,100212.44
2023-05-23T15:16:04.495Z,100225.41
2023-05-23T15:18:40.836Z,100224.50
2023-05-23T15:21:09.022Z,100227.97
2023-05-23T15:23:36.826Z,100212.22
2023-05-23T15:26:04.039Z,100225.53
2023-05-23T15:28:31.254Z,100216.84
2023-05-23T15:30:59.213Z,100217.63
2023-05-23T15:33:26.476Z,100220.25
2023-05-23T15:35:54.072Z,100221.16
2023-05-23T15:38:21.238Z,100208.94
2023-05-23T15:40:49.086Z,100205.44
2023-05-23T15:43:16.580Z,100213.31
2023-05-23T15:45:43.930Z,100211.59
2023-05-23T15:48:11.459Z,100211.59
2023-05-23T15:50:38.741Z,100208.94
2023-05-23T15:53:06.314Z,100208.00
2023-05-23T15:55:33.453Z,100204.69
2023-05-23T15:58:01.042Z,100201.97
2023-05-23T16:00:28.325Z,100156.69
2023-05-23T16:02:55.615Z,100198.41
2023-05-23T16:05:22.872Z,100187.13
2023-05-23T16:07:51.539Z,100172.25
2023-05-23T16:10:19.315Z,100177.47
2023-05-23T16:12:47.671Z,100185.31
2023-05-23T16:15:14.725Z,100160.03
2023-05-23T16:17:41.762Z,100179.09
2023-05-23T16:20:09.126Z,100177.38
2023-05-23T16:22:36.541Z,100177.38
2023-05-23T16:25:03.676Z,100166.91
2023-05-23T16:27:32.673Z,100170.38
2023-05-23T16:29:59.736Z,100163.50
2023-05-23T16:32:29.126Z,100157.50
2023-05-23T16:34:56.686Z,100180.19
2023-05-23T16:37:23.845Z,100180.22
2023-05-23T16:39:50.926Z,100179.44
2023-05-23T16:42:18.068Z,100181.34
2023-05-23T16:44:45.665Z,100197.09
2023-05-23T16:47:12.772Z,100186.75
2023-05-23T16:49:39.889Z,100195.53
2023-05-23T16:52:06.989Z,100199.00
2023-05-23T16:54:34.092Z,100195.50
2023-05-23T16:57:02.205Z,100192.94
2023-05-23T16:59:30.140Z,100153.91
2023-05-23T17:01:57.711Z,100200.91
2023-05-23T17:04:25.104Z,100200.09
2023-05-23T17:06:52.214Z,100197.44
2023-05-23T17:09:21.567Z,100199.22
2023-05-23T17:11:49.304Z,100207.13
2023-05-23T17:14:16.566Z,100201.91
2023-05-23T17:16:43.729Z,100196.69
2023-05-23T17:19:10.960Z,100196.66
2023-05-23T17:21:38.095Z,100188.84
2023-05-23T17:24:05.362Z,100193.19
2023-05-23T17:26:32.716Z,100187.13
2023-05-23T17:28:59.754Z,100181.06
2023-05-23T17:31:29.667Z,100177.50
2023-05-23T17:33:57.742Z,100174.03
2023-05-23T17:36:24.959Z,100164.50
2023-05-23T17:38:54.885Z,100149.81
2023-05-23T17:41:24.819Z,100163.81
2023-05-23T17:43:51.978Z,100157.75
2023-05-23T17:46:19.208Z,100142.91
2023-05-23T17:48:48.101Z,100151.69
2023-05-23T17:51:16.215Z,100141.31
2023-05-23T17:53:43.849Z,100157.91
2023-05-23T17:56:11.114Z,100153.56
2023-05-23T17:58:39.818Z,100144.06
2023-05-23T18:01:08.766Z,100153.59
2023-05-23T18:03:36.018Z,100148.34
2023-05-23T18:06:03.537Z,100136.97
2023-05-23T18:08:30.734Z,100139.53
2023-05-23T18:10:57.846Z,100139.53
2023-05-23T18:13:24.928Z,100133.59
2023-05-23T18:15:52.302Z,100141.50
2023-05-23T18:18:19.463Z,100132.72
2023-05-23T18:20:47.322Z,100081.41
2023-05-23T18:23:14.460Z,100119.59
2023-05-23T18:25:41.512Z,100130.94
2023-05-23T18:28:08.658Z,100118.69
2023-05-23T18:30:35.862Z,100126.63
2023-05-23T18:33:02.972Z,100112.66
2023-05-23T18:35:30.164Z,100126.56
2023-05-23T18:37:57.279Z,100116.09
2023-05-23T18:40:26.185Z,100126.63
2023-05-23T18:42:53.723Z,100114.44
2023-05-23T18:45:20.814Z,100121.44
2023-05-23T18:47:47.999Z,100122.38
2023-05-23T18:50:15.245Z,100118.09
2023-05-23T18:52:43.085Z,100133.88
2023-05-23T18:55:11.345Z,100127.81
2023-05-23T18:57:38.809Z,100122.50
2023-05-23T19:00:07.549Z,100142.53
2023-05-23T19:02:35.301Z,100123.34
2023-05-23T19:05:03.043Z,100136.47
2023-05-23T19:07:30.980Z,100125.97
2023-05-23T19:09:58.127Z,100137.28
2023-05-23T19:12:25.402Z,100134.66
2023-05-23T19:14:52.988Z,100122.44
2023-05-23T19:17:20.107Z,100126.91
2023-05-23T19:19:47.216Z,100132.09
2023-05-23T19:22:14.341Z,100133.00
2023-05-23T19:24:41.701Z,100125.13
2023-05-23T19:27:08.791Z,100114.59
2023-05-23T19:29:36.001Z,100112.03
2023-05-23T19:32:03.174Z,100119.06
2023-05-23T19:34:30.404Z,100128.69
2023-05-23T19:36:58.061Z,100126.94
2023-05-23T19:39:25.142Z,100116.44
2023-05-23T19:41:52.261Z,100114.72
2023-05-23T19:44:19.763Z,100106.84
2023-05-23T19:46:46.856Z,100104.13
2023-05-23T19:49:15.303Z,100101.53
2023-05-23T19:51:42.402Z,100100.63
2023-05-23T19:54:09.599Z,100089.31
2023-05-23T19:56:36.978Z,100104.13
2023-05-23T19:59:04.236Z,100102.38
2023-05-23T20:01:33.781Z,100099.75
2023-05-23T20:04:01.177Z,100094.50
2023-05-23T20:06:28.734Z,100077.06
2023-05-23T20:08:55.921Z,100072.69
2023-05-23T20:11:23.301Z,100062.28
2023-05-23T20:13:50.425Z,100091.88
2023-05-23T20:16:17.661Z,100056.19
2023-05-23T20:18:44.795Z,100079.66
2023-05-23T20:21:11.949Z,100087.47
2023-05-23T20:23:41.106Z,100061.38
2023-05-23T20:26:09.740Z,100075.31
2023-05-23T20:28:37.806Z,100087.53
2023-05-23T20:31:05.054Z,100075.31
2023-05-23T20:33:34.407Z,100079.66
2023-05-23T20:36:01.784Z,100082.31
2023-05-23T20:38:29.143Z,100087.59
2023-05-23T20:40:56.242Z,100073.63
2023-05-23T20:43:23.824Z,100087.59
2023-05-23T20:45:50.900Z,100087.63
2023-05-23T20:48:17.977Z,100076.34
2023-05-23T20:50:45.688Z,100076.34
2023-05-23T20:53:12.834Z,100092.06
2023-05-23T20:55:40.100Z,100075.53
2023-05-23T20:58:07.432Z,100092.13
2023-05-23T21:00:34.552Z,100089.47
2023-05-23T21:03:02.339Z,100078.16
2023-05-23T21:05:29.591Z,100092.13
2023-05-23T21:07:56.696Z,100098.22
2023-05-23T21:10:23.729Z,100092.06
2023-05-23T21:12:51.830Z,100084.22
2023-05-23T21:15:19.700Z,100075.53
2023-05-23T21:17:46.851Z,100071.25
2023-05-23T21:20:14.017Z,100085.13
2023-05-23T21:22:41.431Z,100090.38
2023-05-23T21:25:08.940Z,100094.72
2023-05-23T21:27:36.014Z,100090.38
2023-05-23T21:30:03.600Z,100077.28
2023-05-23T21:32:33.450Z,100081.63
2023-05-23T21:35:00.906Z,100083.38
2023-05-23T21:37:28.056Z,100080.72
2023-05-23T21:39:55.124Z,100068.53
2023-05-23T21:42:22.247Z,100067.59
2023-05-23T21:44:49.325Z,100072.84
2023-05-23T21:47:16.513Z,100036.31
2023-05-23T21:49:43.696Z,100071.97
2023-05-23T21:52:10.812Z,100065.88
2023-05-23T21:54:37.990Z,100066.78
2023-05-23T21:57:05.470Z,100079.88
2023-05-23T21:59:32.506Z,100069.47
2023-05-23T22:01:59.823Z,100074.66
2023-05-23T22:04:27.043Z,100063.38
2023-05-23T22:06:54.107Z,100072.94
2023-05-23T22:09:21.258Z,100074.75
2023-05-23T22:11:48.339Z,100071.25
2023-05-23T22:14:15.567Z,100065.13
2023-05-23T22:16:42.652Z,100062.50
2023-05-23T22:19:10.436Z,100056.44
2023-05-23T22:21:38.209Z,100063.44
2023-05-23T22:24:05.903Z,100068.66
2023-05-23T22:26:33.011Z,100067.75
2023-05-23T22:29:00.500Z,100071.28
2023-05-23T22:31:29.050Z,100059.91
2023-05-23T22:33:56.533Z,100076.53
2023-05-23T22:36:23.879Z,100062.59
2023-05-23T22:38:51.029Z,100066.94
2023-05-23T22:41:18.366Z,100062.56
2023-05-23T22:43:45.822Z,100071.28
2023-05-23T22:46:12.886Z,100061.75
2023-05-23T22:48:39.952Z,100056.50
2023-05-23T22:51:08.081Z,100067.78
2023-05-23T22:53:35.332Z,100064.28
2023-05-23T22:56:02.903Z,100067.75
2023-05-23T22:58:30.075Z,100029.47
2023-05-23T23:00:57.154Z,100076.53
2023-05-23T23:03:24.218Z,100062.56
2023-05-23T23:05:51.395Z,100060.72
2023-05-23T23:08:19.538Z,100060.78
2023-05-23T23:10:47.007Z,100064.25
2023-05-23T23:13:14.254Z,100070.38
2023-05-23T23:15:42.978Z,100061.66
2023-05-23T23:18:13.514Z,100056.47
2023-05-23T23:20:41.570Z,100050.34
2023-05-23T23:23:09.109Z,100067.78
2023-05-23T23:25:36.615Z,100048.63
2023-05-23T23:28:04.032Z,100065.16
2023-05-23T23:30:31.105Z,100047.72
2023-05-23T23:32:58.408Z,100065.13
2023-05-23T23:35:25.575Z,100063.41
2023-05-23T23:37:52.625Z,100059.91
2023-05-23T23:40:19.668Z,100049.44
2023-05-23T23:42:48.199Z,100058.16
2023-05-23T23:45:15.469Z,100055.50
2023-05-23T23:47:43.044Z,100047.69
2023-05-23T23:50:10.419Z,100034.59
2023-05-23T23:52:37.536Z,100054.63
2023-05-23T23:55:05.237Z,100048.47
2023-05-23T23:57:33.253Z,100055.47
